Kerrick, TX (79051)

2:54 PM CDT on July 22, 2014 (GMT -0500)
Dalhart Municipal (KDHT) Elev 3990 ft | 36.03 °N, 102.55 °W | Change Station

Current weather conditions updated 1 hour ago

Clear
Clear
91 °F
Feels Like 92 °F
N
14
Wind Variable Wind from South

Today is forecast to be Cooler than yesterday.

Today
High -- | Low -- °F
--% Chance of Precip.
Yesterday
High -- | Low -- °F
Precip. -- in
6:47 AM 9:02 PM
Waning Crescent, 15% visible
Pressure 30.02 in
Visibility 10.0 miles
Clouds Clear
Heat Index 92 °F
Dew Point 63 °F
Humidity 39%
Rainfall 0.00 in
Snow Depth Not available.
UV 13 out of 12
Pollen 4.60 out of 12
Air Quality Not available.
Flu Activity Sporadic
METAR KDHT 221853Z AUTO 19012KT 10SM CLR 33/17 A3022 RMK AO2 SLP166 T03280172

More Conditions Fewer Conditions

Pressure 30.02 in
Visibility 10.0 miles
Clouds Clear
Heat Index 92 °F
Dew Point 63 °F
Humidity 39%
Rainfall 0.00 in
Snow Depth Not available.
UV 13 out of 12
Pollen 4.60 out of 12
Air Quality Not available.
Flu Activity Sporadic
METAR KDHT 221853Z AUTO 19012KT 10SM CLR 33/17 A3022 RMK AO2 SLP166 T03280172

More Conditions Fewer Conditions

10-Day Weather Forecast

Almanac

Astronomy

Jul. 22, 2014 Rise Set
Actual Time 6:47 AM CDT 9:02 PM CDT
Civil Twilight 6:18 AM CDT 9:32 PM CDT
Nautical Twilight 5:42 AM CDT 10:07 PM CDT
Astronomical Twilight 5:03 AM CDT 10:46 PM CDT
Moon 3:21 AM CDT 5:43 PM CDT
Length of Visible Light 15h 13m
Length of Day
14h 15m
Tomorrow will be 1m 27s shorter.
Waning Crescent, 15% of the Moon is Illuminated
Today
Waning Crescent
Jul 26
New
Aug 3
First Quarter
Aug 10
Full
Aug 17
Last Quarter

Today's Extremes

State Highs State Lows

Community

WunderPhotos

Upload Photos

1,736,341 photos uploaded!

Nearby

Snow Depth

Station Depth Elevation
No new snow has been reported.

Earthquake Activity

City Distance Mag. Time & Date
No recent earthquake activity has been reported nearby.
Minimum magnitude displayed is 2.5.

Coastal Water Temperatures

Place Temperature
No Stations Reporting

Nearby Weather Stations

Station Location Temp. Heat Index Dew Point Humidity Wind Precip. Elev Updated Type
MesoWest CONLEN , Stratford, TX 92 °F 88 °F - - North  at  - 0.00 in / hr 3748 ft 1:35 PM CDT MADIS
MesoWest STEVNS , Stratford, TX 91 °F 87 °F - - North  at  - 0.00 in / hr 3611 ft 1:55 PM CDT MADIS
MesoWest CHBRLN , Dalhart, TX 84 °F 81 °F - - North  at  - 0.00 in / hr 3964 ft 1:30 PM CDT MADIS

Show More Stations Show Fewer Stations